createdAt,value
2022-10-13T00:00:15.426Z,2.25
2022-10-13T00:00:47.109Z,2.47
2022-10-13T00:01:20.094Z,1.80
2022-10-13T00:01:51.425Z,2.25
2022-10-13T00:02:22.780Z,2.47
2022-10-13T00:02:54.122Z,2.20
2022-10-13T00:03:25.821Z,2.40
2022-10-13T00:03:57.200Z,2.30
2022-10-13T00:04:28.540Z,2.58
2022-10-13T00:04:59.852Z,2.08
2022-10-13T00:05:31.189Z,2.00
2022-10-13T00:06:05.209Z,2.28
2022-10-13T00:06:36.623Z,2.30
2022-10-13T00:07:07.937Z,2.53
2022-10-13T00:07:39.257Z,2.28
2022-10-13T00:08:11.056Z,2.15
2022-10-13T00:08:42.632Z,2.30
2022-10-13T00:09:13.978Z,2.30
2022-10-13T00:09:45.292Z,2.75
2022-10-13T00:10:16.640Z,2.67
2022-10-13T00:10:49.208Z,2.83
2022-10-13T00:11:25.109Z,2.22
2022-10-13T00:11:57.354Z,2.80
2022-10-13T00:12:28.679Z,2.17
2022-10-13T00:12:59.991Z,2.50
2022-10-13T00:13:31.299Z,2.25
2022-10-13T00:14:04.360Z,2.05
2022-10-13T00:14:35.720Z,2.40
2022-10-13T00:15:07.999Z,2.50
2022-10-13T00:15:40.008Z,2.03
2022-10-13T00:16:12.214Z,2.17
2022-10-13T00:16:43.545Z,2.78
2022-10-13T00:17:14.889Z,2.60
2022-10-13T00:17:46.537Z,3.15
2022-10-13T00:18:17.902Z,2.20
2022-10-13T00:18:49.794Z,2.28
2022-10-13T00:19:21.109Z,2.42
2022-10-13T00:19:52.445Z,4.13
2022-10-13T00:20:23.765Z,2.25
2022-10-13T00:20:55.145Z,2.47
2022-10-13T00:21:27.291Z,2.20
2022-10-13T00:21:58.606Z,2.35
2022-10-13T00:22:29.992Z,2.45
2022-10-13T00:23:01.684Z,2.53
2022-10-13T00:23:33.359Z,2.67
2022-10-13T00:24:04.779Z,2.83
2022-10-13T00:24:36.134Z,3.10
2022-10-13T00:25:07.665Z,2.58
2022-10-13T00:25:46.671Z,2.63
2022-10-13T00:26:18.471Z,2.90
2022-10-13T00:26:50.799Z,2.20
2022-10-13T00:27:22.227Z,2.95
2022-10-13T00:27:53.569Z,2.15
2022-10-13T00:28:24.932Z,2.58
2022-10-13T00:28:56.374Z,2.38
2022-10-13T00:29:27.780Z,2.70
2022-10-13T00:29:59.187Z,2.58
2022-10-13T00:30:33.530Z,2.25
2022-10-13T00:31:14.443Z,2.38
2022-10-13T00:31:45.772Z,2.63
2022-10-13T00:32:17.443Z,2.88
2022-10-13T00:32:49.091Z,2.67
2022-10-13T00:33:20.409Z,2.55
2022-10-13T00:33:52.068Z,2.38
2022-10-13T00:34:23.439Z,2.63
2022-10-13T00:34:54.760Z,2.78
2022-10-13T00:35:26.226Z,2.35
2022-10-13T00:35:57.582Z,2.60
2022-10-13T00:36:29.325Z,2.65
2022-10-13T00:37:00.642Z,2.75
2022-10-13T00:37:32.028Z,2.17
2022-10-13T00:38:03.360Z,2.63
2022-10-13T00:38:34.681Z,2.38
2022-10-13T00:39:06.053Z,1.70
2022-10-13T00:39:37.380Z,2.85
2022-10-13T00:40:08.959Z,2.90
2022-10-13T00:40:51.057Z,2.63
2022-10-13T00:41:22.390Z,2.70
2022-10-13T00:41:53.727Z,2.40
2022-10-13T00:42:25.074Z,2.70
2022-10-13T00:42:56.414Z,2.78
2022-10-13T00:43:47.373Z,3.08
2022-10-13T00:44:37.480Z,2.95
2022-10-13T00:45:17.716Z,3.00
2022-10-13T00:45:49.703Z,3.58
2022-10-13T00:46:22.212Z,2.45
2022-10-13T00:46:53.550Z,2.20
2022-10-13T00:47:26.225Z,2.17
2022-10-13T00:48:01.190Z,2.83
2022-10-13T00:48:32.523Z,2.90
2022-10-13T00:49:08.666Z,2.90
2022-10-13T00:49:40.007Z,2.70
2022-10-13T00:50:12.609Z,3.17
2022-10-13T00:50:44.337Z,2.40
2022-10-13T00:51:17.139Z,2.97
2022-10-13T00:51:49.396Z,2.50
2022-10-13T00:52:21.602Z,3.58
2022-10-13T00:52:54.172Z,3.15
2022-10-13T00:53:28.395Z,2.67
2022-10-13T00:54:00.699Z,3.40
2022-10-13T00:54:32.085Z,3.50
2022-10-13T00:55:03.872Z,3.10
2022-10-13T00:55:36.526Z,2.95
2022-10-13T00:56:09.711Z,2.72
2022-10-13T00:56:41.191Z,2.97
2022-10-13T00:57:12.820Z,3.20
2022-10-13T00:57:45.435Z,2.88
2022-10-13T00:58:18.065Z,3.10
2022-10-13T00:58:49.737Z,3.50
2022-10-13T00:59:23.809Z,2.72
2022-10-13T00:59:55.447Z,2.75
2022-10-13T01:00:26.818Z,3.15
2022-10-13T01:00:58.903Z,2.97
2022-10-13T01:01:30.678Z,2.75
2022-10-13T01:02:02.186Z,2.90
2022-10-13T01:02:35.864Z,3.03
2022-10-13T01:03:07.195Z,3.58
2022-10-13T01:03:38.595Z,3.15
2022-10-13T01:04:10.376Z,2.50
2022-10-13T01:04:43.239Z,2.22
2022-10-13T01:05:14.964Z,2.95
2022-10-13T01:05:47.628Z,2.60
2022-10-13T01:06:23.397Z,2.67
2022-10-13T01:06:56.485Z,3.63
2022-10-13T01:07:27.866Z,3.10
2022-10-13T01:07:59.469Z,3.00
2022-10-13T01:08:31.085Z,2.88
2022-10-13T01:09:02.404Z,2.50
2022-10-13T01:09:33.729Z,3.78
2022-10-13T01:10:05.325Z,2.70
2022-10-13T01:10:51.696Z,2.50
2022-10-13T01:11:41.517Z,3.20
2022-10-13T01:12:19.160Z,2.38
2022-10-13T01:13:03.107Z,3.10
2022-10-13T01:13:39.149Z,4.43
2022-10-13T01:14:18.479Z,2.90
2022-10-13T01:15:10.061Z,3.08
2022-10-13T01:15:56.509Z,2.90
2022-10-13T01:16:27.807Z,3.17
2022-10-13T01:17:04.830Z,3.05
2022-10-13T01:17:45.126Z,4.35
2022-10-13T01:18:20.657Z,3.22
2022-10-13T01:18:56.745Z,2.80
2022-10-13T01:19:46.888Z,3.10
2022-10-13T01:20:36.648Z,3.25
2022-10-13T01:21:07.980Z,2.75
2022-10-13T01:21:51.911Z,2.80
2022-10-13T01:22:26.065Z,3.10
2022-10-13T01:23:03.588Z,3.40
2022-10-13T01:23:51.439Z,3.17
2022-10-13T01:24:42.971Z,2.10
2022-10-13T01:25:26.538Z,2.88
2022-10-13T01:25:57.870Z,3.10
2022-10-13T01:26:47.945Z,2.88
2022-10-13T01:27:25.222Z,3.35
2022-10-13T01:28:02.607Z,2.75
2022-10-13T01:28:40.216Z,3.30
2022-10-13T01:29:11.560Z,2.45
2022-10-13T01:29:57.836Z,2.53
2022-10-13T01:30:31.867Z,3.08
2022-10-13T01:31:11.171Z,2.72
2022-10-13T01:31:48.977Z,2.72
2022-10-13T01:32:46.936Z,2.55
2022-10-13T01:33:18.259Z,2.53
2022-10-13T01:33:57.183Z,2.38
2022-10-13T01:34:37.644Z,2.65
2022-10-13T01:35:16.372Z,3.15
2022-10-13T01:35:53.445Z,3.35
2022-10-13T01:36:46.118Z,3.05
2022-10-13T01:37:22.451Z,3.10
2022-10-13T01:37:58.349Z,2.90
2022-10-13T01:38:32.767Z,3.40
2022-10-13T01:39:30.512Z,2.83
2022-10-13T01:40:10.285Z,2.53
2022-10-13T01:40:49.639Z,3.08
2022-10-13T01:41:20.940Z,3.25
2022-10-13T01:41:55.007Z,2.47
2022-10-13T01:42:36.063Z,2.65
2022-10-13T01:43:10.619Z,2.85
2022-10-13T01:44:05.341Z,3.08
2022-10-13T01:44:38.492Z,3.50
2022-10-13T01:45:11.527Z,2.85
2022-10-13T01:45:48.867Z,2.75
2022-10-13T01:46:23.026Z,2.70
2022-10-13T01:46:54.564Z,3.00
2022-10-13T01:47:26.651Z,3.30
2022-10-13T01:47:59.574Z,3.50
2022-10-13T01:48:31.122Z,2.95
2022-10-13T01:49:04.562Z,3.05
2022-10-13T01:49:36.026Z,2.85
2022-10-13T01:50:07.686Z,2.90
2022-10-13T01:50:39.383Z,2.80
2022-10-13T01:51:13.535Z,2.95
2022-10-13T01:51:44.999Z,3.03
2022-10-13T01:52:17.942Z,3.60
2022-10-13T01:52:49.980Z,4.10
2022-10-13T01:53:21.551Z,2.38
2022-10-13T01:53:53.121Z,3.45
2022-10-13T01:54:24.451Z,2.28
2022-10-13T01:54:55.818Z,2.78
2022-10-13T01:55:27.185Z,2.78
2022-10-13T01:55:59.415Z,2.65
2022-10-13T01:56:30.868Z,3.25
2022-10-13T01:57:02.205Z,3.17
2022-10-13T01:57:35.079Z,2.88
2022-10-13T01:58:06.389Z,3.08
2022-10-13T01:58:37.847Z,3.03
2022-10-13T01:59:11.391Z,2.63
2022-10-13T01:59:42.718Z,3.25
2022-10-13T02:00:19.252Z,3.67
2022-10-13T02:01:00.124Z,3.20
2022-10-13T02:01:43.533Z,3.30
2022-10-13T02:02:19.115Z,2.88
2022-10-13T02:03:11.896Z,2.50
2022-10-13T02:03:52.383Z,2.88
2022-10-13T02:04:50.025Z,2.45
2022-10-13T02:05:24.283Z,2.92
2022-10-13T02:06:20.531Z,2.97
2022-10-13T02:06:54.078Z,3.67
2022-10-13T02:07:25.398Z,2.50
2022-10-13T02:07:59.806Z,2.72
2022-10-13T02:08:33.254Z,3.75
2022-10-13T02:09:04.717Z,2.58
2022-10-13T02:09:59.154Z,2.77
2022-10-13T02:10:34.255Z,2.70
2022-10-13T02:11:05.636Z,2.80
2022-10-13T02:11:38.941Z,2.78
2022-10-13T02:12:22.910Z,3.50
2022-10-13T02:13:00.006Z,3.20
2022-10-13T02:13:32.713Z,3.28
2022-10-13T02:14:11.809Z,2.92
2022-10-13T02:14:44.271Z,3.08
2022-10-13T02:15:17.947Z,3.28
2022-10-13T02:15:50.970Z,3.15
2022-10-13T02:16:22.753Z,3.70
2022-10-13T02:16:54.429Z,2.92
2022-10-13T02:17:27.061Z,3.00
2022-10-13T02:17:58.567Z,3.67
2022-10-13T02:18:31.714Z,3.20
2022-10-13T02:19:04.693Z,3.67
2022-10-13T02:19:37.711Z,3.38
2022-10-13T02:20:09.721Z,3.13
2022-10-13T02:20:42.082Z,3.20
2022-10-13T02:21:15.419Z,2.60
2022-10-13T02:21:47.496Z,3.03
2022-10-13T02:22:19.670Z,2.80
2022-10-13T02:22:55.760Z,2.92
2022-10-13T02:23:28.076Z,2.60
2022-10-13T02:23:59.437Z,2.53
2022-10-13T02:24:30.898Z,2.90
2022-10-13T02:25:02.268Z,3.15
2022-10-13T02:25:34.190Z,2.90
2022-10-13T02:26:05.697Z,2.85
2022-10-13T02:26:37.371Z,2.97
2022-10-13T02:27:09.043Z,3.47
2022-10-13T02:27:40.559Z,2.67
2022-10-13T02:28:13.276Z,2.85
2022-10-13T02:28:44.862Z,2.80
2022-10-13T02:29:16.643Z,3.40
2022-10-13T02:29:49.186Z,3.15
2022-10-13T02:30:22.488Z,3.03
2022-10-13T02:30:53.819Z,3.67
2022-10-13T02:31:25.217Z,3.22
2022-10-13T02:31:56.570Z,3.13
2022-10-13T02:32:27.910Z,3.03
2022-10-13T02:32:59.788Z,2.80
2022-10-13T02:33:31.125Z,3.15
2022-10-13T02:34:02.468Z,3.33
2022-10-13T02:34:33.800Z,3.15
2022-10-13T02:35:05.383Z,3.53
2022-10-13T02:35:36.753Z,3.58
2022-10-13T02:36:08.080Z,2.85
2022-10-13T02:36:39.493Z,3.07
2022-10-13T02:37:10.832Z,3.63
2022-10-13T02:37:42.268Z,3.50
2022-10-13T02:38:13.606Z,3.42
2022-10-13T02:38:44.924Z,2.55
2022-10-13T02:39:16.693Z,2.50
2022-10-13T02:39:48.019Z,2.55
2022-10-13T02:40:19.344Z,3.47
2022-10-13T02:40:50.732Z,3.80
2022-10-13T02:41:22.074Z,3.25
2022-10-13T02:41:53.554Z,4.15
2022-10-13T02:42:24.915Z,3.25
2022-10-13T02:42:56.282Z,2.83
2022-10-13T02:43:27.632Z,2.63
2022-10-13T02:43:59.333Z,2.90
2022-10-13T02:44:30.661Z,2.67
2022-10-13T02:45:01.983Z,2.53
2022-10-13T02:45:33.334Z,3.17
2022-10-13T02:46:04.767Z,2.78
2022-10-13T02:46:36.098Z,2.85
2022-10-13T02:47:07.515Z,3.30
2022-10-13T02:47:38.984Z,3.17
2022-10-13T02:48:10.318Z,2.90
2022-10-13T02:48:41.643Z,2.92
2022-10-13T02:49:13.035Z,2.53
2022-10-13T02:49:44.392Z,2.85
2022-10-13T02:50:15.782Z,3.10
2022-10-13T02:50:47.364Z,2.83
2022-10-13T02:51:18.717Z,2.88
2022-10-13T02:51:50.068Z,3.03
2022-10-13T02:52:21.799Z,2.30
2022-10-13T02:52:53.329Z,2.88
2022-10-13T02:53:24.768Z,3.10
2022-10-13T02:53:56.110Z,3.00
2022-10-13T02:54:27.467Z,2.67
2022-10-13T02:54:58.794Z,2.95
2022-10-13T02:55:30.125Z,2.92
2022-10-13T02:56:01.463Z,2.80
2022-10-13T02:56:32.784Z,3.00
2022-10-13T02:57:04.126Z,3.22
2022-10-13T02:57:35.495Z,2.42
2022-10-13T02:58:06.862Z,2.70
2022-10-13T02:58:38.196Z,3.13
2022-10-13T02:59:09.511Z,2.80
2022-10-13T02:59:40.837Z,2.42
2022-10-13T03:00:12.607Z,2.78
2022-10-13T03:00:43.989Z,2.90
2022-10-13T03:01:15.560Z,2.85
2022-10-13T03:01:46.914Z,2.70
2022-10-13T03:02:18.780Z,3.30
2022-10-13T03:02:50.462Z,3.50
2022-10-13T03:03:21.788Z,2.47
2022-10-13T03:03:53.144Z,3.55
2022-10-13T03:04:24.473Z,3.40
2022-10-13T03:04:55.827Z,2.78
2022-10-13T03:05:27.181Z,2.20
2022-10-13T03:05:58.515Z,2.80
2022-10-13T03:06:29.858Z,3.00
2022-10-13T03:07:01.423Z,2.90
2022-10-13T03:07:32.765Z,2.72
2022-10-13T03:08:04.209Z,2.75
2022-10-13T03:08:35.709Z,2.47
2022-10-13T03:09:07.132Z,2.53
2022-10-13T03:09:38.476Z,2.63
2022-10-13T03:10:09.882Z,2.25
2022-10-13T03:10:41.277Z,2.80
2022-10-13T03:11:12.613Z,2.63
2022-10-13T03:11:44.074Z,2.67
2022-10-13T03:12:15.474Z,2.63
2022-10-13T03:12:46.837Z,2.90
2022-10-13T03:13:18.523Z,2.70
2022-10-13T03:13:50.010Z,2.50
2022-10-13T03:14:21.353Z,2.80
2022-10-13T03:14:52.702Z,2.70
2022-10-13T03:15:24.317Z,3.15
2022-10-13T03:15:55.679Z,2.83
2022-10-13T03:16:27.131Z,2.83
2022-10-13T03:16:58.524Z,3.17
2022-10-13T03:17:29.941Z,2.55
2022-10-13T03:18:01.269Z,3.03
2022-10-13T03:18:32.705Z,2.75
2022-10-13T03:19:04.152Z,2.55
2022-10-13T03:19:35.461Z,3.38
2022-10-13T03:20:07.225Z,2.80
2022-10-13T03:20:38.548Z,3.03
2022-10-13T03:21:10.250Z,3.40
2022-10-13T03:21:41.813Z,2.72
2022-10-13T03:22:13.148Z,2.78
2022-10-13T03:22:48.817Z,2.33
2022-10-13T03:23:21.180Z,2.67
2022-10-13T03:23:52.518Z,3.03
2022-10-13T03:24:23.861Z,3.17
2022-10-13T03:24:55.178Z,2.78
2022-10-13T03:25:26.493Z,2.67
2022-10-13T03:25:57.836Z,3.03
2022-10-13T03:26:29.149Z,2.72
2022-10-13T03:27:00.499Z,3.05
2022-10-13T03:27:31.829Z,2.65
2022-10-13T03:28:03.160Z,3.42
2022-10-13T03:28:34.567Z,3.40
2022-10-13T03:29:05.993Z,3.67
2022-10-13T03:29:37.469Z,3.58
2022-10-13T03:30:09.212Z,2.78
2022-10-13T03:30:40.555Z,3.38
2022-10-13T03:31:12.021Z,3.70
2022-10-13T03:31:43.378Z,4.22
2022-10-13T03:32:14.730Z,3.75
2022-10-13T03:32:46.057Z,3.97
2022-10-13T03:33:17.400Z,3.75
2022-10-13T03:33:48.744Z,3.97
2022-10-13T03:34:20.083Z,3.75
2022-10-13T03:34:51.665Z,3.47
2022-10-13T03:35:22.983Z,3.22
2022-10-13T03:35:54.307Z,3.78
2022-10-13T03:36:25.622Z,4.05
2022-10-13T03:36:56.946Z,3.80
2022-10-13T03:37:29.149Z,3.95
2022-10-13T03:38:00.478Z,3.90
2022-10-13T03:38:32.943Z,3.95
2022-10-13T03:39:04.282Z,4.07
2022-10-13T03:39:35.655Z,4.68
2022-10-13T03:40:07.402Z,3.83
2022-10-13T03:40:38.757Z,4.45
2022-10-13T03:41:11.463Z,4.88
2022-10-13T03:41:42.828Z,3.70
2022-10-13T03:42:14.163Z,3.90
2022-10-13T03:42:45.497Z,3.73
2022-10-13T03:43:16.826Z,3.65
2022-10-13T03:43:48.179Z,4.47
2022-10-13T03:44:19.571Z,3.78
2022-10-13T03:44:55.952Z,3.83
2022-10-13T03:45:27.795Z,3.35
2022-10-13T03:46:00.217Z,3.63
2022-10-13T03:46:31.692Z,3.78
2022-10-13T03:47:03.042Z,4.28
2022-10-13T03:47:37.299Z,3.58
2022-10-13T03:48:08.663Z,4.35
2022-10-13T03:48:40.052Z,3.57
2022-10-13T03:49:11.817Z,3.80
2022-10-13T03:49:43.170Z,3.00
2022-10-13T03:50:14.547Z,3.45
2022-10-13T03:50:45.885Z,3.93
2022-10-13T03:51:18.645Z,3.70
2022-10-13T03:51:49.938Z,3.13
2022-10-13T03:52:22.045Z,2.95
2022-10-13T03:52:53.649Z,3.63
2022-10-13T03:53:25.263Z,3.87
2022-10-13T03:53:56.622Z,3.58
2022-10-13T03:54:27.945Z,3.65
2022-10-13T03:54:59.307Z,3.13
2022-10-13T03:55:30.634Z,3.25
2022-10-13T03:56:02.118Z,2.75
2022-10-13T03:56:33.488Z,3.00
2022-10-13T03:57:04.805Z,3.75
2022-10-13T03:57:36.120Z,3.03
2022-10-13T03:58:07.444Z,3.38
2022-10-13T03:58:38.779Z,2.85
2022-10-13T03:59:12.041Z,3.05
2022-10-13T03:59:43.407Z,3.20
2022-10-13T04:00:15.075Z,3.28
2022-10-13T04:00:46.499Z,3.60
2022-10-13T04:01:17.859Z,3.65
2022-10-13T04:01:49.371Z,3.65
2022-10-13T04:02:21.004Z,4.60
2022-10-13T04:02:52.569Z,4.13
2022-10-13T04:03:23.971Z,4.05
2022-10-13T04:03:55.509Z,4.28
2022-10-13T04:04:26.838Z,3.58
2022-10-13T04:04:58.172Z,3.75
2022-10-13T04:05:29.777Z,3.85
2022-10-13T04:06:01.748Z,3.33
2022-10-13T04:06:33.144Z,3.55
2022-10-13T04:07:04.700Z,3.38
2022-10-13T04:07:36.025Z,3.57
2022-10-13T04:08:07.511Z,3.13
2022-10-13T04:08:38.857Z,3.10
2022-10-13T04:09:10.264Z,3.60
2022-10-13T04:09:41.628Z,3.90
2022-10-13T04:10:12.987Z,3.40
2022-10-13T04:10:44.589Z,3.67
2022-10-13T04:11:16.576Z,2.95
2022-10-13T04:11:49.688Z,3.08
2022-10-13T04:12:21.416Z,3.73
2022-10-13T04:12:52.845Z,2.97
2022-10-13T04:13:24.245Z,3.25
2022-10-13T04:13:56.312Z,3.50
2022-10-13T04:14:27.657Z,2.97
2022-10-13T04:14:59.006Z,3.60
2022-10-13T04:15:30.355Z,3.33
2022-10-13T04:16:05.996Z,3.75
2022-10-13T04:16:37.390Z,3.00
2022-10-13T04:17:08.701Z,3.60
2022-10-13T04:17:40.117Z,3.00
2022-10-13T04:18:11.605Z,3.40
2022-10-13T04:18:44.864Z,3.15
2022-10-13T04:19:16.462Z,3.53
2022-10-13T04:19:47.802Z,3.58
2022-10-13T04:20:19.334Z,3.05
2022-10-13T04:20:50.686Z,3.38
2022-10-13T04:21:22.470Z,3.42
2022-10-13T04:21:53.805Z,3.35
2022-10-13T04:22:25.244Z,3.72
2022-10-13T04:22:56.586Z,3.08
2022-10-13T04:23:27.941Z,3.25
2022-10-13T04:23:59.712Z,3.22
2022-10-13T04:24:31.117Z,2.85
2022-10-13T04:25:02.511Z,3.30
2022-10-13T04:25:37.381Z,2.60
2022-10-13T04:26:14.485Z,4.22
2022-10-13T04:26:46.012Z,3.47
2022-10-13T04:27:17.392Z,3.35
2022-10-13T04:27:48.736Z,4.25
2022-10-13T04:28:20.116Z,4.18
2022-10-13T04:28:52.498Z,4.93
2022-10-13T04:29:24.071Z,3.45
2022-10-13T04:29:55.401Z,3.77
2022-10-13T04:30:26.711Z,4.30
2022-10-13T04:30:58.479Z,4.10
2022-10-13T04:31:30.434Z,3.92
2022-10-13T04:32:01.754Z,3.17
2022-10-13T04:32:33.202Z,3.25
2022-10-13T04:33:05.007Z,3.05
2022-10-13T04:33:36.337Z,2.88
2022-10-13T04:34:07.676Z,3.03
2022-10-13T04:34:39.028Z,2.83
2022-10-13T04:35:10.360Z,3.50
2022-10-13T04:35:41.793Z,2.83
2022-10-13T04:36:14.043Z,2.80
2022-10-13T04:36:45.368Z,3.10
2022-10-13T04:37:16.714Z,4.05
2022-10-13T04:37:48.067Z,4.80
2022-10-13T04:38:19.405Z,3.17
2022-10-13T04:38:51.052Z,4.03
2022-10-13T04:39:22.379Z,4.40
2022-10-13T04:39:53.707Z,4.18
2022-10-13T04:40:25.688Z,3.83
2022-10-13T04:40:57.035Z,3.37
2022-10-13T04:41:28.365Z,3.83
2022-10-13T04:41:59.720Z,3.08
2022-10-13T04:42:31.057Z,3.25
2022-10-13T04:43:02.395Z,3.63
2022-10-13T04:43:33.841Z,3.35
2022-10-13T04:44:05.202Z,3.83
2022-10-13T04:44:36.516Z,3.85
2022-10-13T04:45:08.206Z,4.40
2022-10-13T04:45:39.535Z,3.38
2022-10-13T04:46:13.347Z,3.53
2022-10-13T04:46:44.691Z,3.72
2022-10-13T04:47:16.258Z,3.92
2022-10-13T04:47:47.597Z,3.65
2022-10-13T04:48:18.978Z,3.80
2022-10-13T04:48:50.326Z,3.28
2022-10-13T04:49:21.676Z,3.83
2022-10-13T04:49:53.011Z,3.67
2022-10-13T04:50:24.327Z,3.97
2022-10-13T04:50:59.477Z,3.08
2022-10-13T04:51:30.798Z,3.97
2022-10-13T04:52:02.128Z,4.15
2022-10-13T04:52:36.603Z,3.88
2022-10-13T04:53:07.917Z,3.70
2022-10-13T04:53:39.329Z,4.47
2022-10-13T04:54:10.777Z,3.63
2022-10-13T04:54:42.970Z,3.80
2022-10-13T04:55:14.300Z,3.92
2022-10-13T04:55:45.614Z,3.67
2022-10-13T04:56:17.581Z,4.00
2022-10-13T04:56:48.914Z,3.67
2022-10-13T04:57:20.228Z,3.50
2022-10-13T04:57:51.593Z,3.42
2022-10-13T04:58:23.118Z,3.20
2022-10-13T04:58:54.557Z,3.65
2022-10-13T04:59:26.051Z,3.50
2022-10-13T04:59:57.367Z,4.47
2022-10-13T05:00:28.741Z,3.95
2022-10-13T05:01:00.496Z,3.30
2022-10-13T05:01:32.756Z,3.38
2022-10-13T05:02:04.102Z,3.30
2022-10-13T05:02:35.898Z,3.60
2022-10-13T05:03:07.259Z,3.35
2022-10-13T05:03:38.598Z,3.42
2022-10-13T05:04:10.554Z,3.67
2022-10-13T05:04:41.906Z,3.90
2022-10-13T05:05:13.267Z,3.45
2022-10-13T05:05:44.626Z,3.78
2022-10-13T05:06:23.403Z,3.30
2022-10-13T05:07:16.493Z,3.53
2022-10-13T05:07:46.679Z,3.25
2022-10-13T05:08:18.200Z,3.05
2022-10-13T05:08:49.759Z,3.30
2022-10-13T05:09:21.064Z,3.90
2022-10-13T05:09:52.479Z,3.30
2022-10-13T05:10:23.820Z,3.47
2022-10-13T05:10:59.498Z,3.30
2022-10-13T05:11:31.628Z,3.28
2022-10-13T05:12:03.190Z,3.55
2022-10-13T05:12:34.722Z,3.40
2022-10-13T05:13:06.076Z,3.13
2022-10-13T05:13:37.889Z,3.47
2022-10-13T05:14:09.263Z,3.22
2022-10-13T05:14:40.772Z,3.10
2022-10-13T05:15:12.106Z,3.17
2022-10-13T05:15:43.571Z,2.90
2022-10-13T05:16:16.219Z,3.67
2022-10-13T05:16:47.705Z,3.63
2022-10-13T05:17:19.012Z,3.38
2022-10-13T05:17:50.451Z,2.75
2022-10-13T05:18:21.949Z,3.23
2022-10-13T05:18:53.971Z,3.80
2022-10-13T05:19:25.360Z,3.55
2022-10-13T05:19:56.698Z,3.38
2022-10-13T05:20:28.028Z,3.28
2022-10-13T05:21:05.870Z,3.47
2022-10-13T05:21:37.248Z,3.97
2022-10-13T05:22:08.592Z,3.70
2022-10-13T05:22:40.150Z,3.40
2022-10-13T05:23:11.797Z,3.55
2022-10-13T05:23:43.443Z,3.47
2022-10-13T05:24:14.796Z,3.97
2022-10-13T05:24:46.123Z,4.13
2022-10-13T05:25:17.545Z,4.68
2022-10-13T05:25:48.919Z,4.38
2022-10-13T05:26:20.333Z,4.53
2022-10-13T05:26:51.692Z,4.75
2022-10-13T05:27:23.006Z,4.22
2022-10-13T05:27:54.328Z,4.45
2022-10-13T05:28:25.672Z,4.72
2022-10-13T05:28:57.500Z,4.22
2022-10-13T05:29:28.870Z,5.63
2022-10-13T05:30:00.219Z,4.50
2022-10-13T05:30:31.641Z,4.88
2022-10-13T05:31:10.131Z,6.20
2022-10-13T05:31:41.454Z,6.28
2022-10-13T05:32:12.801Z,6.15
2022-10-13T05:32:44.260Z,5.28
2022-10-13T05:33:15.584Z,4.90
2022-10-13T05:33:47.203Z,5.53
2022-10-13T05:34:18.530Z,5.32
2022-10-13T05:34:49.884Z,4.80
2022-10-13T05:35:21.214Z,4.57
2022-10-13T05:35:52.541Z,4.68
2022-10-13T05:36:25.880Z,4.55
2022-10-13T05:36:57.322Z,4.47
2022-10-13T05:37:28.684Z,4.50
2022-10-13T05:38:00.028Z,4.38
2022-10-13T05:38:31.500Z,4.55
2022-10-13T05:39:04.492Z,4.32
2022-10-13T05:39:35.818Z,4.60
2022-10-13T05:40:07.502Z,5.47
2022-10-13T05:40:38.826Z,5.00
2022-10-13T05:41:11.107Z,3.63
2022-10-13T05:41:42.431Z,5.60
2022-10-13T05:42:13.996Z,4.95
2022-10-13T05:42:45.319Z,4.75
2022-10-13T05:43:16.643Z,4.38
2022-10-13T05:43:48.001Z,4.88
2022-10-13T05:44:19.596Z,4.82
2022-10-13T05:44:51.061Z,4.88
2022-10-13T05:45:23.322Z,5.03
2022-10-13T05:45:54.654Z,4.53
2022-10-13T05:46:26.137Z,5.07
2022-10-13T05:46:57.454Z,5.63
2022-10-13T05:47:28.778Z,5.05
2022-10-13T05:48:00.085Z,5.03
2022-10-13T05:48:31.953Z,5.30
2022-10-13T05:49:03.509Z,4.80
2022-10-13T05:49:34.956Z,5.30
2022-10-13T05:50:06.628Z,5.60
2022-10-13T05:50:38.175Z,5.55
2022-10-13T05:51:14.063Z,5.18
2022-10-13T05:51:47.369Z,7.53
2022-10-13T05:52:19.059Z,5.50
2022-10-13T05:52:51.148Z,5.70
2022-10-13T05:53:23.657Z,5.85
2022-10-13T05:54:00.016Z,4.60
2022-10-13T05:54:34.962Z,5.45
2022-10-13T05:55:08.533Z,4.93
2022-10-13T05:55:39.909Z,5.68
2022-10-13T05:56:14.010Z,6.28
2022-10-13T05:56:50.238Z,5.05
2022-10-13T05:57:27.660Z,5.57
2022-10-13T05:57:58.996Z,4.95
2022-10-13T05:58:31.505Z,5.57
2022-10-13T05:59:04.741Z,5.63
2022-10-13T05:59:39.612Z,5.13
2022-10-13T06:00:15.253Z,5.00
2022-10-13T06:00:46.801Z,5.10
2022-10-13T06:01:20.115Z,5.22
2022-10-13T06:01:52.021Z,5.00
2022-10-13T06:02:24.915Z,5.13
2022-10-13T06:03:03.913Z,5.22
2022-10-13T06:03:35.615Z,5.60
2022-10-13T06:04:09.613Z,4.95
2022-10-13T06:04:48.892Z,4.68
2022-10-13T06:05:21.610Z,5.00
2022-10-13T06:05:53.314Z,5.93
2022-10-13T06:06:29.036Z,5.03
2022-10-13T06:07:02.552Z,5.50
2022-10-13T06:07:34.185Z,5.65
2022-10-13T06:08:05.544Z,5.93
2022-10-13T06:08:37.369Z,7.18
2022-10-13T06:09:08.745Z,5.82
2022-10-13T06:09:40.764Z,5.45
2022-10-13T06:10:12.255Z,4.90
2022-10-13T06:10:43.728Z,4.77
2022-10-13T06:11:15.072Z,5.32
2022-10-13T06:11:46.401Z,5.30
2022-10-13T06:12:17.937Z,5.43
2022-10-13T06:12:49.404Z,5.70
2022-10-13T06:13:20.747Z,5.25
2022-10-13T06:13:52.056Z,5.60
2022-10-13T06:14:23.409Z,5.15
2022-10-13T06:14:54.743Z,5.32
2022-10-13T06:15:28.295Z,5.60
2022-10-13T06:15:59.739Z,5.40
2022-10-13T06:16:31.115Z,6.38
2022-10-13T06:17:02.423Z,6.05
2022-10-13T06:17:35.860Z,6.95
2022-10-13T06:18:07.709Z,6.53
2022-10-13T06:18:39.028Z,6.07
2022-10-13T06:19:10.355Z,6.00
2022-10-13T06:19:41.699Z,6.18
2022-10-13T06:20:13.028Z,6.90
2022-10-13T06:20:44.375Z,6.43
2022-10-13T06:21:15.727Z,7.57
2022-10-13T06:21:47.094Z,7.50
2022-10-13T06:22:18.822Z,8.57
2022-10-13T06:22:50.429Z,8.02
2022-10-13T06:23:21.739Z,7.85
2022-10-13T06:23:53.070Z,8.47
2022-10-13T06:24:24.398Z,8.77
2022-10-13T06:24:55.719Z,8.70
2022-10-13T06:25:27.109Z,9.25
2022-10-13T06:25:58.441Z,8.68
2022-10-13T06:26:29.776Z,8.63
2022-10-13T06:27:01.135Z,9.07
2022-10-13T06:27:32.520Z,8.98
2022-10-13T06:28:03.927Z,9.93
2022-10-13T06:28:35.366Z,9.32
2022-10-13T06:29:06.782Z,9.88
2022-10-13T06:29:38.217Z,9.90
2022-10-13T06:30:09.741Z,9.98
2022-10-13T06:30:41.091Z,9.25
2022-10-13T06:31:12.425Z,10.32
2022-10-13T06:31:43.758Z,9.50
2022-10-13T06:32:15.128Z,10.80
2022-10-13T06:32:46.461Z,10.68
2022-10-13T06:33:17.760Z,9.15
2022-10-13T06:33:49.079Z,9.55
2022-10-13T06:34:20.425Z,9.07
2022-10-13T06:34:51.797Z,11.37
2022-10-13T06:35:23.409Z,9.35
2022-10-13T06:35:54.730Z,9.45
2022-10-13T06:36:26.251Z,10.27
2022-10-13T06:36:57.616Z,9.90
2022-10-13T06:37:28.961Z,10.52
2022-10-13T06:38:00.295Z,9.73
2022-10-13T06:38:31.838Z,9.90
2022-10-13T06:39:03.223Z,9.73
2022-10-13T06:39:35.244Z,10.52
2022-10-13T06:40:06.969Z,10.35
2022-10-13T06:40:38.452Z,10.02
2022-10-13T06:41:09.793Z,10.60
2022-10-13T06:41:41.121Z,10.90
2022-10-13T06:42:12.527Z,10.68
2022-10-13T06:42:48.999Z,9.85
2022-10-13T06:43:20.401Z,10.40
2022-10-13T06:43:51.724Z,9.00
2022-10-13T06:44:23.080Z,9.43
2022-10-13T06:44:54.445Z,9.32
2022-10-13T06:45:25.771Z,10.82
2022-10-13T06:46:00.820Z,9.70
2022-10-13T06:46:32.227Z,10.10
2022-10-13T06:47:04.339Z,10.52
2022-10-13T06:47:35.706Z,10.38
2022-10-13T06:48:07.318Z,10.02
2022-10-13T06:48:38.675Z,10.05
2022-10-13T06:49:10.029Z,10.88
2022-10-13T06:49:41.571Z,10.27
2022-10-13T06:50:12.949Z,10.25
2022-10-13T06:50:44.346Z,10.35
2022-10-13T06:51:15.684Z,9.50
2022-10-13T06:51:47.009Z,10.10
2022-10-13T06:52:18.659Z,8.90
2022-10-13T06:52:50.392Z,9.93
2022-10-13T06:53:21.724Z,9.00
2022-10-13T06:53:53.086Z,9.25
2022-10-13T06:54:24.477Z,10.13
2022-10-13T06:54:55.807Z,8.93
2022-10-13T06:55:27.368Z,9.40
2022-10-13T06:55:59.330Z,9.80
2022-10-13T06:56:30.665Z,9.90
2022-10-13T06:57:02.009Z,9.35
2022-10-13T06:57:33.491Z,9.82
2022-10-13T06:58:04.836Z,9.57
2022-10-13T06:58:36.449Z,9.60
2022-10-13T06:59:07.904Z,9.48
2022-10-13T06:59:39.357Z,10.15
2022-10-13T07:00:10.932Z,9.25
2022-10-13T07:00:42.420Z,9.90
2022-10-13T07:01:13.927Z,9.30
2022-10-13T07:01:45.299Z,10.27
2022-10-13T07:02:16.703Z,9.55
2022-10-13T07:02:51.804Z,9.63
2022-10-13T07:03:23.734Z,10.02
2022-10-13T07:03:55.159Z,9.13
2022-10-13T07:04:26.550Z,8.18
2022-10-13T07:04:57.873Z,8.35
2022-10-13T07:05:29.350Z,9.20
2022-10-13T07:06:01.964Z,9.38
2022-10-13T07:06:33.534Z,8.93
2022-10-13T07:07:04.869Z,9.60
2022-10-13T07:07:36.273Z,9.27
2022-10-13T07:08:07.596Z,9.40
2022-10-13T07:08:38.976Z,11.07
2022-10-13T07:09:10.304Z,7.82
2022-10-13T07:09:41.848Z,8.15
2022-10-13T07:10:13.436Z,9.00
2022-10-13T07:10:44.790Z,7.97
2022-10-13T07:11:16.733Z,7.85
2022-10-13T07:11:48.201Z,7.73
2022-10-13T07:12:19.613Z,7.55
2022-10-13T07:12:51.075Z,7.88
2022-10-13T07:13:58.712Z,6.88
2022-10-13T07:14:30.055Z,6.68
2022-10-13T07:15:01.401Z,8.07
2022-10-13T07:15:32.761Z,7.90